Time;durP1;ratioP1;P1;durP2;ratioP2;P2;SDS_P1;SDS_P2;PMS_P1;PMS_P2;Temp;Humidity;BMP_temperature;BMP_pressure;BME280_temperature;BME280_humidity;BME280_pressure;Samples;Min_cycle;Max_cycle;Signal;HPM_P1;HPM_P2
2022/04/17 00:00:05;;;;;;;;;;;7.90;92.50;;;;;;5034076;28;19939;-67
2022/04/17 00:02:33;;;;;;;;;;;7.90;92.20;;;;;;5032084;28;19994;-67
2022/04/17 00:05:01;;;;;;;;;;;7.90;92.30;;;;;;5027938;28;20358;-66
2022/04/17 00:07:29;;;;;;;;;;;7.90;92.50;;;;;;5031738;28;19933;-66
2022/04/17 00:09:56;;;;;;;;;;;8.00;92.60;;;;;;5030017;28;19941;-66
2022/04/17 00:12:23;;;;;;;;;;;8.00;92.40;;;;;;5029896;28;19979;-66
2022/04/17 00:14:50;;;;;;;;;;;7.90;92.10;;;;;;5043455;28;20372;-66
2022/04/17 00:17:17;;;;;;;;;;;7.90;92.10;;;;;;5030519;28;19973;-66
2022/04/17 00:19:45;;;;;;;;;;;7.80;91.80;;;;;;5030397;28;19928;-67
2022/04/17 00:22:13;;;;;;;;;;;7.80;91.80;;;;;;5028631;28;20395;-66
2022/04/17 00:24:40;;;;;;;;;;;7.90;91.80;;;;;;5014456;28;19940;-66
2022/04/17 00:27:07;;;;;;;;;;;7.90;92.00;;;;;;5031102;28;20372;-66
2022/04/17 00:29:35;;;;;;;;;;;7.90;91.60;;;;;;5028052;28;20844;-67
2022/04/17 00:32:02;;;;;;;;;;;7.90;92.00;;;;;;5030295;28;19940;-66
2022/04/17 00:34:30;;;;;;;;;;;7.90;91.80;;;;;;5032852;28;19936;-66
2022/04/17 00:37:00;;;;;;;;;;;7.80;91.90;;;;;;5027021;28;20448;-66
2022/04/17 00:39:28;;;;;;;;;;;7.90;92.30;;;;;;5031451;28;20372;-67
2022/04/17 00:41:55;;;;;;;;;;;7.80;91.80;;;;;;5030985;28;19951;-66
2022/04/17 00:44:22;;;;;;;;;;;7.70;91.90;;;;;;5036405;28;19929;-66
2022/04/17 00:46:49;;;;;;;;;;;7.70;92.40;;;;;;5032413;28;20040;-66
2022/04/17 00:49:16;;;;;;;;;;;7.80;92.50;;;;;;5036557;28;19929;-66
2022/04/17 00:51:45;;;;;;;;;;;7.80;92.00;;;;;;5034220;28;19932;-66
2022/04/17 00:54:13;;;;;;;;;;;7.80;92.20;;;;;;5037537;28;19925;-66
2022/04/17 00:56:40;;;;;;;;;;;7.80;92.00;;;;;;5038051;28;19933;-66
2022/04/17 00:59:11;;;;;;;;;;;7.80;92.50;;;;;;5032892;28;19940;-66
2022/04/17 01:01:38;;;;;;;;;;;7.80;92.10;;;;;;5038931;28;19976;-66
2022/04/17 01:04:06;;;;;;;;;;;7.80;92.20;;;;;;5034383;28;20037;-66
2022/04/17 01:06:33;;;;;;;;;;;7.70;91.80;;;;;;5024078;28;19929;-66
2022/04/17 01:09:00;;;;;;;;;;;7.60;91.90;;;;;;5033052;28;19940;-66
2022/04/17 01:11:27;;;;;;;;;;;7.40;90.20;;;;;;5035703;28;20020;-66
2022/04/17 01:13:55;;;;;;;;;;;7.40;89.10;;;;;;5037472;28;19929;-66
2022/04/17 01:16:23;;;;;;;;;;;7.30;87.30;;;;;;5033582;28;20319;-66
2022/04/17 01:19:00;;;;;;;;;;;7.30;85.80;;;;;;5037209;28;20442;-66
2022/04/17 01:21:28;;;;;;;;;;;7.20;82.80;;;;;;5039069;28;20059;-66
2022/04/17 01:26:56;;;;;;;;;;;7.30;83.90;;;;;;5033430;28;20318;-67
2022/04/17 01:29:25;;;;;;;;;;;7.30;81.10;;;;;;5031852;28;22033;-67
2022/04/17 01:31:52;;;;;;;;;;;7.30;80.70;;;;;;5020028;28;19983;-67
2022/04/17 01:34:20;;;;;;;;;;;7.30;82.90;;;;;;5030367;28;19936;-67
2022/04/17 01:36:48;;;;;;;;;;;7.40;82.50;;;;;;5018290;28;19959;-67
2022/04/17 01:39:15;;;;;;;;;;;7.30;81.50;;;;;;5034655;28;19974;-67
2022/04/17 01:41:42;;;;;;;;;;;7.30;80.00;;;;;;5028240;28;20018;-66
2022/04/17 01:44:09;;;;;;;;;;;7.20;78.80;;;;;;5034273;28;20388;-67
2022/04/17 01:46:36;;;;;;;;;;;7.30;79.30;;;;;;5035128;28;19970;-67
2022/04/17 01:49:04;;;;;;;;;;;7.30;78.50;;;;;;5030858;28;19956;-67
2022/04/17 01:51:35;;;;;;;;;;;7.30;79.20;;;;;;5031643;28;19998;-67
2022/04/17 01:54:02;;;;;;;;;;;7.20;78.30;;;;;;5034386;28;19940;-66
2022/04/17 01:56:29;;;;;;;;;;;7.10;77.40;;;;;;5032349;28;19943;-67
2022/04/17 01:58:56;;;;;;;;;;;7.20;79.70;;;;;;5036232;28;19925;-67
2022/04/17 02:01:23;;;;;;;;;;;7.20;76.70;;;;;;5049145;28;20040;-67
2022/04/17 02:03:50;;;;;;;;;;;7.20;77.80;;;;;;5036019;28;19929;-67
2022/04/17 02:06:17;;;;;;;;;;;7.20;76.90;;;;;;5031915;28;19936;-66
2022/04/17 02:08:44;;;;;;;;;;;7.10;76.80;;;;;;5034110;28;19935;-67
2022/04/17 02:11:12;;;;;;;;;;;7.00;77.40;;;;;;5038142;28;20384;-66
2022/04/17 02:13:39;;;;;;;;;;;6.90;76.00;;;;;;5034450;28;19929;-66
2022/04/17 02:16:06;;;;;;;;;;;6.90;76.50;;;;;;5032619;28;19928;-66
2022/04/17 02:18:33;;;;;;;;;;;6.80;77.10;;;;;;5029388;28;19932;-66
2022/04/17 02:21:01;;;;;;;;;;;6.90;78.90;;;;;;5037059;28;20295;-66
2022/04/17 02:23:28;;;;;;;;;;;6.90;78.20;;;;;;5039524;28;19928;-66
2022/04/17 02:25:54;;;;;;;;;;;6.70;76.70;;;;;;5031582;28;20557;-66
2022/04/17 02:28:21;;;;;;;;;;;6.70;76.30;;;;;;5039834;28;19929;-66
2022/04/17 02:30:48;;;;;;;;;;;6.60;74.60;;;;;;5031922;28;20445;-66
2022/04/17 02:33:15;;;;;;;;;;;6.50;73.60;;;;;;5034421;28;20276;-66
2022/04/17 02:35:42;;;;;;;;;;;6.50;73.10;;;;;;5029374;28;19936;-66
2022/04/17 02:38:09;;;;;;;;;;;6.50;73.50;;;;;;5033635;28;19948;-67
2022/04/17 02:40:36;;;;;;;;;;;6.50;73.40;;;;;;5031696;28;19982;-66
2022/04/17 02:43:03;;;;;;;;;;;6.40;72.80;;;;;;5033245;28;20462;-67
2022/04/17 02:45:30;;;;;;;;;;;6.20;72.30;;;;;;5031886;28;19944;-67
2022/04/17 02:47:57;;;;;;;;;;;6.20;72.20;;;;;;5032881;28;19925;-67
2022/04/17 02:50:24;;;;;;;;;;;6.30;71.80;;;;;;5034882;28;19929;-67
2022/04/17 02:52:54;;;;;;;;;;;6.20;70.20;;;;;;5031436;28;20533;-66
2022/04/17 02:55:21;;;;;;;;;;;6.10;69.50;;;;;;5032393;28;19936;-66
2022/04/17 02:57:48;;;;;;;;;;;6.00;70.10;;;;;;5033004;28;20404;-67
2022/04/17 03:00:15;;;;;;;;;;;5.90;69.30;;;;;;5012906;28;19936;-66
2022/04/17 03:05:37;;;;;;;;;;;6.00;70.00;;;;;;5031828;28;19933;-66
2022/04/17 03:08:14;;;;;;;;;;;5.90;68.80;;;;;;5034118;28;19987;-66
2022/04/17 03:10:48;;;;;;;;;;;5.90;69.90;;;;;;5036086;28;20478;-66
2022/04/17 03:13:15;;;;;;;;;;;5.80;69.50;;;;;;5032183;28;19925;-66
2022/04/17 03:15:42;;;;;;;;;;;5.80;70.80;;;;;;5034702;28;19937;-66
2022/04/17 03:18:09;;;;;;;;;;;5.80;69.70;;;;;;5033700;28;19925;-66
2022/04/17 03:20:36;;;;;;;;;;;5.70;70.50;;;;;;5032269;28;19953;-66
2022/04/17 03:23:03;;;;;;;;;;;5.80;71.20;;;;;;5032413;28;19929;-66
2022/04/17 03:25:30;;;;;;;;;;;5.70;70.10;;;;;;5027416;28;19933;-66
2022/04/17 03:27:57;;;;;;;;;;;5.70;70.70;;;;;;5032587;28;19971;-67
2022/04/17 03:30:24;;;;;;;;;;;5.70;70.10;;;;;;5032947;28;19959;-67
2022/04/17 03:32:52;;;;;;;;;;;5.50;69.80;;;;;;5033642;28;19933;-67
2022/04/17 03:35:19;;;;;;;;;;;5.40;70.40;;;;;;5031839;28;20006;-67
2022/04/17 03:37:46;;;;;;;;;;;5.30;69.60;;;;;;5043841;28;19939;-68
2022/04/17 03:40:14;;;;;;;;;;;5.30;70.10;;;;;;5033760;28;20010;-67
2022/04/17 03:42:41;;;;;;;;;;;5.30;70.50;;;;;;5017523;28;20362;-67
2022/04/17 03:45:11;;;;;;;;;;;5.30;71.20;;;;;;5031314;28;20514;-67
2022/04/17 03:47:38;;;;;;;;;;;5.30;71.50;;;;;;5030596;28;19952;-68
2022/04/17 03:50:06;;;;;;;;;;;5.50;71.80;;;;;;5034046;28;19932;-68
2022/04/17 03:52:39;;;;;;;;;;;5.50;71.40;;;;;;5030166;28;19940;-67
2022/04/17 03:55:07;;;;;;;;;;;5.60;71.60;;;;;;5032224;28;19944;-67
2022/04/17 03:57:34;;;;;;;;;;;5.50;71.80;;;;;;5036349;28;19929;-67
2022/04/17 04:00:01;;;;;;;;;;;5.50;71.70;;;;;;5031169;28;19941;-67
2022/04/17 04:02:37;;;;;;;;;;;5.50;72.10;;;;;;5032712;28;19929;-67
2022/04/17 04:05:05;;;;;;;;;;;5.50;73.10;;;;;;5029646;28;19932;-67
2022/04/17 04:07:32;;;;;;;;;;;5.40;72.50;;;;;;5033954;28;20051;-67
2022/04/17 04:09:58;;;;;;;;;;;5.40;72.70;;;;;;5030793;28;19929;-67
2022/04/17 04:12:26;;;;;;;;;;;5.40;71.60;;;;;;5029843;28;20510;-68
2022/04/17 04:14:54;;;;;;;;;;;5.20;71.30;;;;;;5036083;28;19941;-67
2022/04/17 04:17:21;;;;;;;;;;;5.10;71.10;;;;;;5031736;28;19937;-68
2022/04/17 04:19:48;;;;;;;;;;;5.20;71.50;;;;;;5029911;28;19932;-68
2022/04/17 04:22:15;;;;;;;;;;;5.30;71.50;;;;;;5049584;28;19928;-68
2022/04/17 04:24:42;;;;;;;;;;;5.20;70.10;;;;;;5039867;28;20430;-67
2022/04/17 04:29:54;;;;;;;;;;;5.10;69.30;;;;;;5035181;28;19929;-67
2022/04/17 04:32:21;;;;;;;;;;;5.10;68.60;;;;;;5035732;28;19960;-68
2022/04/17 04:34:48;;;;;;;;;;;5.10;69.90;;;;;;5032530;28;19948;-68
2022/04/17 04:37:15;;;;;;;;;;;5.10;70.00;;;;;;5038878;28;19960;-67
2022/04/17 04:39:42;;;;;;;;;;;5.10;68.70;;;;;;5035538;28;20692;-67
2022/04/17 04:42:09;;;;;;;;;;;5.10;69.40;;;;;;5036044;28;19990;-68
2022/04/17 04:44:36;;;;;;;;;;;5.10;70.10;;;;;;5034440;28;19952;-67
2022/04/17 04:47:03;;;;;;;;;;;5.00;69.00;;;;;;5035004;28;19951;-68
2022/04/17 04:49:30;;;;;;;;;;;5.10;69.80;;;;;;5035514;28;19929;-67
2022/04/17 04:52:03;;;;;;;;;;;5.10;69.30;;;;;;5037138;28;20304;-68
2022/04/17 04:54:30;;;;;;;;;;;5.00;69.50;;;;;;5048953;28;19982;-67
2022/04/17 04:56:58;;;;;;;;;;;5.10;70.00;;;;;;5039170;28;19928;-67
2022/04/17 04:59:25;;;;;;;;;;;5.10;69.20;;;;;;5038451;28;19936;-67
2022/04/17 05:01:52;;;;;;;;;;;5.10;69.40;;;;;;4999454;28;20939;-67
2022/04/17 05:04:20;;;;;;;;;;;5.20;68.90;;;;;;4996449;28;19933;-69
2022/04/17 05:06:47;;;;;;;;;;;5.20;68.20;;;;;;4990164;28;19933;-68
2022/04/17 05:09:14;;;;;;;;;;;5.30;68.90;;;;;;5003120;28;20699;-67
2022/04/17 05:11:41;;;;;;;;;;;5.30;67.10;;;;;;4984806;28;22656;-67
2022/04/17 05:14:11;;;;;;;;;;;5.30;67.90;;;;;;4992234;28;19933;-67
2022/04/17 05:16:38;;;;;;;;;;;5.40;67.40;;;;;;5002430;28;19933;-67
2022/04/17 05:21:53;;;;;;;;;;;5.50;67.30;;;;;;4991735;28;20692;-67
2022/04/17 05:24:20;;;;;;;;;;;5.60;67.50;;;;;;4988513;28;19933;-67
2022/04/17 05:26:47;;;;;;;;;;;5.60;66.00;;;;;;4989784;28;20023;-67
2022/04/17 05:29:14;;;;;;;;;;;5.80;67.50;;;;;;4992363;28;20071;-67
2022/04/17 05:31:41;;;;;;;;;;;5.80;64.20;;;;;;4986575;28;19940;-67
2022/04/17 05:34:08;;;;;;;;;;;5.80;63.10;;;;;;4990151;28;19968;-67
2022/04/17 05:36:35;;;;;;;;;;;5.90;62.80;;;;;;5004513;28;22126;-68
2022/04/17 05:39:02;;;;;;;;;;;5.90;63.00;;;;;;4987819;28;19940;-67
2022/04/17 05:41:29;;;;;;;;;;;6.00;62.40;;;;;;4992418;28;19933;-68
2022/04/17 05:43:57;;;;;;;;;;;6.10;63.00;;;;;;4974592;28;20070;-67
2022/04/17 05:46:26;;;;;;;;;;;6.10;63.40;;;;;;4989149;28;19933;-68
2022/04/17 05:48:53;;;;;;;;;;;6.20;62.30;;;;;;4989459;28;19982;-67
2022/04/17 05:51:20;;;;;;;;;;;6.30;61.60;;;;;;4988802;28;20066;-67
2022/04/17 05:53:47;;;;;;;;;;;6.40;62.60;;;;;;4990190;28;19933;-67
2022/04/17 05:56:14;;;;;;;;;;;6.50;61.70;;;;;;4990741;28;22473;-66
2022/04/17 05:58:41;;;;;;;;;;;6.60;61.10;;;;;;4988193;28;20039;-67
2022/04/17 06:01:08;;;;;;;;;;;6.60;60.90;;;;;;4985989;28;20895;-67
2022/04/17 06:03:35;;;;;;;;;;;6.70;60.90;;;;;;4980455;28;19940;-68
2022/04/17 06:06:02;;;;;;;;;;;6.80;62.10;;;;;;4988580;28;20024;-67
2022/04/17 06:08:29;;;;;;;;;;;7.00;62.40;;;;;;4990246;28;20048;-67
2022/04/17 06:10:58;;;;;;;;;;;7.10;59.30;;;;;;4987407;28;22355;-67
2022/04/17 06:13:25;;;;;;;;;;;7.20;58.60;;;;;;4988926;28;19933;-68
2022/04/17 06:15:52;;;;;;;;;;;7.30;59.60;;;;;;4989744;28;20388;-68
2022/04/17 06:18:19;;;;;;;;;;;7.40;58.10;;;;;;4989098;28;19933;-67
2022/04/17 06:20:46;;;;;;;;;;;7.50;57.40;;;;;;4987127;28;19933;-67
2022/04/17 06:23:13;;;;;;;;;;;7.60;56.50;;;;;;4980158;28;19933;-68
2022/04/17 06:25:40;;;;;;;;;;;7.70;57.60;;;;;;4988011;28;19940;-67
2022/04/17 06:28:07;;;;;;;;;;;7.90;58.10;;;;;;4986387;28;20018;-67
2022/04/17 06:30:34;;;;;;;;;;;8.10;57.00;;;;;;4925885;28;1969239;-67
2022/04/17 06:33:01;;;;;;;;;;;8.10;57.00;;;;;;4988654;28;20011;-68
2022/04/17 06:35:28;;;;;;;;;;;8.20;55.90;;;;;;4990365;28;20708;-68
2022/04/17 06:37:57;;;;;;;;;;;8.40;56.10;;;;;;4970923;28;19932;-67
2022/04/17 06:40:33;;;;;;;;;;;8.30;54.20;;;;;;4988363;28;20047;-67
2022/04/17 06:43:05;;;;;;;;;;;8.40;54.20;;;;;;4995610;28;19940;-67
2022/04/17 06:45:34;;;;;;;;;;;8.30;53.60;;;;;;4989908;28;20596;-67
2022/04/17 06:48:11;;;;;;;;;;;8.50;55.50;;;;;;4986263;28;19952;-67
2022/04/17 06:50:39;;;;;;;;;;;8.50;52.20;;;;;;5004879;28;19932;-67
2022/04/17 06:53:06;;;;;;;;;;;8.60;52.10;;;;;;4995813;28;19940;-68
2022/04/17 06:55:33;;;;;;;;;;;8.60;52.00;;;;;;4986608;28;20762;-67
2022/04/17 06:58:00;;;;;;;;;;;8.70;52.50;;;;;;4985668;28;19955;-67
2022/04/17 07:00:27;;;;;;;;;;;8.80;52.30;;;;;;4985703;28;19937;-68
2022/04/17 07:02:54;;;;;;;;;;;8.90;52.80;;;;;;4987144;28;20173;-67
2022/04/17 07:05:22;;;;;;;;;;;9.00;53.90;;;;;;4987828;28;22256;-67
2022/04/17 07:08:00;;;;;;;;;;;8.90;52.80;;;;;;4989713;28;19937;-67
2022/04/17 07:10:27;;;;;;;;;;;9.00;52.40;;;;;;4983308;28;19932;-67
2022/04/17 07:12:55;;;;;;;;;;;8.90;52.10;;;;;;4983567;28;22394;-67
2022/04/17 07:15:26;;;;;;;;;;;9.10;52.10;;;;;;4985303;28;19987;-68
2022/04/17 07:17:54;;;;;;;;;;;9.00;52.50;;;;;;4986108;28;20611;-67
2022/04/17 07:20:22;;;;;;;;;;;9.00;51.40;;;;;;4987149;28;22338;-67
2022/04/17 07:22:49;;;;;;;;;;;9.30;53.70;;;;;;5004438;28;20036;-68
2022/04/17 07:25:19;;;;;;;;;;;9.40;53.30;;;;;;4990361;28;19933;-67
2022/04/17 07:27:48;;;;;;;;;;;9.60;52.90;;;;;;4989149;28;19936;-67
2022/04/17 07:30:16;;;;;;;;;;;9.60;52.30;;;;;;4987029;28;19940;-68
2022/04/17 07:32:46;;;;;;;;;;;9.60;52.70;;;;;;4987664;28;19967;-67
2022/04/17 07:35:17;;;;;;;;;;;9.80;51.20;;;;;;4985943;28;19933;-67
2022/04/17 07:37:48;;;;;;;;;;;9.90;52.40;;;;;;4983115;28;20075;-67
2022/04/17 07:40:21;;;;;;;;;;;9.90;51.30;;;;;;4989223;28;19933;-67
2022/04/17 07:42:49;;;;;;;;;;;9.80;51.20;;;;;;4987315;28;19932;-67
2022/04/17 07:45:17;;;;;;;;;;;9.90;50.50;;;;;;4987164;28;19932;-67
2022/04/17 07:47:44;;;;;;;;;;;9.90;51.50;;;;;;4985902;28;20065;-67
2022/04/17 07:50:13;;;;;;;;;;;10.10;50.40;;;;;;5001014;28;19936;-67
2022/04/17 07:52:41;;;;;;;;;;;10.00;50.40;;;;;;4987270;28;20395;-67
2022/04/17 07:55:10;;;;;;;;;;;10.20;51.80;;;;;;4985883;28;19932;-66
2022/04/17 08:00:23;;;;;;;;;;;10.50;51.90;;;;;;4983325;28;19933;-67
2022/04/17 08:03:20;;;;;;;;;;;10.60;50.40;;;;;;4988879;28;19932;-68
2022/04/17 08:05:47;;;;;;;;;;;10.40;49.20;;;;;;4988907;28;19932;-68
2022/04/17 08:08:14;;;;;;;;;;;10.50;50.10;;;;;;4988010;28;22243;-68
2022/04/17 08:10:41;;;;;;;;;;;10.70;52.20;;;;;;4988107;28;19933;-67
2022/04/17 08:13:08;;;;;;;;;;;10.70;50.90;;;;;;4977539;28;19999;-67
2022/04/17 08:15:35;;;;;;;;;;;10.80;51.50;;;;;;4987036;28;19933;-67
2022/04/17 08:18:03;;;;;;;;;;;10.90;51.20;;;;;;4998922;28;20013;-68
2022/04/17 08:20:30;;;;;;;;;;;10.90;50.30;;;;;;4980126;28;21020;-67
2022/04/17 08:22:57;;;;;;;;;;;10.80;50.30;;;;;;4981329;28;19940;-68
2022/04/17 08:25:24;;;;;;;;;;;10.90;51.40;;;;;;4990261;28;19933;-67
2022/04/17 08:27:51;;;;;;;;;;;10.90;49.50;;;;;;4990168;28;19971;-68
2022/04/17 08:30:20;;;;;;;;;;;10.70;49.90;;;;;;4986321;28;20407;-67
2022/04/17 08:32:47;;;;;;;;;;;10.70;50.80;;;;;;4986991;28;20114;-67
2022/04/17 08:35:14;;;;;;;;;;;10.90;50.10;;;;;;4991638;28;19936;-67
2022/04/17 08:37:43;;;;;;;;;;;11.00;51.50;;;;;;4978436;28;19940;-69
2022/04/17 08:40:11;;;;;;;;;;;11.20;49.50;;;;;;4996330;28;19932;-67
2022/04/17 08:42:38;;;;;;;;;;;11.20;48.40;;;;;;4975902;28;21156;-68
2022/04/17 08:45:07;;;;;;;;;;;11.20;50.20;;;;;;5000046;28;20057;-67
2022/04/17 08:47:34;;;;;;;;;;;11.00;48.00;;;;;;4989028;28;19933;-68
2022/04/17 08:50:01;;;;;;;;;;;11.30;51.50;;;;;;4984018;28;22490;-67
2022/04/17 08:52:29;;;;;;;;;;;11.20;50.40;;;;;;4995549;28;19933;-68
2022/04/17 08:54:59;;;;;;;;;;;11.60;51.90;;;;;;4983956;28;19933;-67
2022/04/17 08:57:26;;;;;;;;;;;11.80;50.60;;;;;;4983595;28;19984;-68
2022/04/17 08:59:53;;;;;;;;;;;11.70;48.10;;;;;;5000237;28;19939;-67
2022/04/17 09:02:20;;;;;;;;;;;11.40;49.30;;;;;;4985573;28;19940;-67
2022/04/17 09:04:47;;;;;;;;;;;11.40;48.70;;;;;;4987332;28;20043;-67
2022/04/17 09:07:14;;;;;;;;;;;11.40;49.80;;;;;;4982371;28;19967;-68
2022/04/17 09:09:52;;;;;;;;;;;11.30;50.20;;;;;;4984594;28;19933;-67
2022/04/17 09:12:23;;;;;;;;;;;11.80;51.70;;;;;;4984379;28;22264;-68
2022/04/17 09:14:51;;;;;;;;;;;12.00;47.30;;;;;;4990318;28;19972;-68
2022/04/17 09:17:18;;;;;;;;;;;11.50;48.70;;;;;;4989211;28;19955;-68
2022/04/17 09:19:45;;;;;;;;;;;11.10;47.30;;;;;;4990518;28;19933;-67
2022/04/17 09:22:12;;;;;;;;;;;10.90;48.10;;;;;;4988989;28;19937;-67
2022/04/17 09:24:40;;;;;;;;;;;10.90;48.70;;;;;;4991491;28;20287;-68
2022/04/17 09:27:07;;;;;;;;;;;11.10;49.00;;;;;;4990135;28;19994;-68
2022/04/17 09:29:38;;;;;;;;;;;11.10;48.70;;;;;;4991324;28;19933;-68
2022/04/17 09:32:06;;;;;;;;;;;11.60;48.00;;;;;;4996776;28;19933;-68
2022/04/17 09:34:49;;;;;;;;;;;11.60;47.40;;;;;;4990867;28;20037;-67
2022/04/17 09:37:20;;;;;;;;;;;11.00;46.50;;;;;;4987007;28;20654;-68
2022/04/17 09:39:48;;;;;;;;;;;10.60;47.00;;;;;;4992225;28;19975;-67
2022/04/17 09:42:24;;;;;;;;;;;10.60;48.00;;;;;;4989403;28;19933;-68
2022/04/17 09:44:55;;;;;;;;;;;10.50;48.30;;;;;;4991897;28;19933;-68
2022/04/17 09:47:26;;;;;;;;;;;10.60;47.70;;;;;;4984800;28;20051;-68
2022/04/17 09:50:03;;;;;;;;;;;10.50;47.10;;;;;;5004716;28;22322;-67
2022/04/17 09:52:32;;;;;;;;;;;11.40;47.90;;;;;;4989709;28;19964;-68
2022/04/17 09:55:03;;;;;;;;;;;11.80;47.70;;;;;;4990955;28;20044;-68
2022/04/17 09:57:31;;;;;;;;;;;12.00;47.30;;;;;;4989188;28;20062;-67
2022/04/17 10:00:10;;;;;;;;;;;12.00;47.00;;;;;;4991401;28;20730;-68
2022/04/17 10:02:38;;;;;;;;;;;12.20;50.60;;;;;;4991099;28;19991;-67
2022/04/17 10:05:10;;;;;;;;;;;12.10;45.40;;;;;;4990921;28;20926;-67
2022/04/17 10:07:38;;;;;;;;;;;12.10;45.10;;;;;;4985198;28;19939;-68
2022/04/17 10:10:06;;;;;;;;;;;12.30;48.00;;;;;;4983199;28;19932;-68
2022/04/17 10:12:43;;;;;;;;;;;12.50;45.40;;;;;;4991991;28;19940;-68
2022/04/17 10:15:11;;;;;;;;;;;12.70;47.10;;;;;;4995304;28;20031;-67
2022/04/17 10:17:40;;;;;;;;;;;12.90;46.40;;;;;;4988257;28;19940;-67
2022/04/17 10:20:09;;;;;;;;;;;12.90;46.20;;;;;;4989364;28;19968;-67
2022/04/17 10:22:38;;;;;;;;;;;13.00;45.40;;;;;;4990306;28;20376;-67
2022/04/17 10:25:06;;;;;;;;;;;13.10;45.90;;;;;;4980663;28;20339;-66
2022/04/17 10:27:36;;;;;;;;;;;12.70;43.70;;;;;;5001524;28;19986;-67
2022/04/17 10:30:07;;;;;;;;;;;12.30;44.90;;;;;;4986184;28;19941;-67
2022/04/17 10:32:46;;;;;;;;;;;12.00;46.20;;;;;;4982389;28;20003;-67
2022/04/17 10:35:26;;;;;;;;;;;12.20;46.20;;;;;;4990453;28;19955;-67
2022/04/17 10:38:12;;;;;;;;;;;12.40;44.80;;;;;;4988277;28;19932;-67
2022/04/17 10:40:39;;;;;;;;;;;12.40;45.40;;;;;;4989528;28;19933;-68
2022/04/17 10:43:06;;;;;;;;;;;13.20;48.00;;;;;;4996485;28;20653;-67
2022/04/17 10:45:53;;;;;;;;;;;13.00;44.20;;;;;;5005203;28;19941;-67
2022/04/17 10:48:27;;;;;;;;;;;13.40;43.60;;;;;;4990421;28;20357;-67
2022/04/17 10:50:54;;;;;;;;;;;12.70;42.40;;;;;;4994770;28;19933;-68
2022/04/17 10:53:27;;;;;;;;;;;12.10;44.20;;;;;;4986315;28;20015;-67
2022/04/17 10:56:04;;;;;;;;;;;12.20;46.30;;;;;;4987100;28;19940;-68
2022/04/17 10:58:45;;;;;;;;;;;12.60;46.00;;;;;;4989986;28;19933;-67
2022/04/17 11:01:12;;;;;;;;;;;13.00;44.70;;;;;;4987480;28;19933;-68
2022/04/17 11:03:49;;;;;;;;;;;13.20;44.10;;;;;;4987499;28;19940;-69
2022/04/17 11:06:30;;;;;;;;;;;13.40;42.60;;;;;;4988051;28;19933;-68
2022/04/17 11:09:15;;;;;;;;;;;13.30;42.30;;;;;;4989601;28;19994;-67
2022/04/17 11:11:43;;;;;;;;;;;13.20;41.30;;;;;;4990395;28;19960;-68
2022/04/17 11:14:16;;;;;;;;;;;13.20;43.20;;;;;;4989515;28;19987;-68
2022/04/17 11:16:53;;;;;;;;;;;13.30;42.40;;;;;;4986423;28;19933;-68
2022/04/17 11:19:22;;;;;;;;;;;12.70;43.30;;;;;;4988936;28;19932;-68
2022/04/17 11:21:50;;;;;;;;;;;12.80;44.10;;;;;;4987073;28;19939;-68
2022/04/17 11:24:17;;;;;;;;;;;13.00;43.00;;;;;;4987440;28;19955;-68
2022/04/17 11:26:53;;;;;;;;;;;13.30;42.90;;;;;;4987597;28;19940;-67
2022/04/17 11:29:34;;;;;;;;;;;13.70;43.40;;;;;;4995128;28;19937;-67
2022/04/17 11:32:02;;;;;;;;;;;13.70;43.50;;;;;;4986601;28;20075;-67
2022/04/17 11:34:41;;;;;;;;;;;13.90;41.20;;;;;;4987196;28;19940;-67
2022/04/17 11:37:09;;;;;;;;;;;14.20;41.20;;;;;;4986305;28;19956;-67
2022/04/17 11:39:36;;;;;;;;;;;14.00;42.80;;;;;;4988908;28;20159;-67
2022/04/17 11:42:07;;;;;;;;;;;13.20;42.00;;;;;;4986745;28;20408;-67
2022/04/17 11:44:34;;;;;;;;;;;12.70;41.20;;;;;;4986869;28;19937;-67
2022/04/17 11:47:01;;;;;;;;;;;12.60;41.90;;;;;;4987528;28;19999;-67
2022/04/17 11:49:32;;;;;;;;;;;12.20;42.40;;;;;;4987537;28;20030;-67
2022/04/17 11:52:12;;;;;;;;;;;12.20;43.20;;;;;;4983249;28;19948;-67
2022/04/17 11:54:40;;;;;;;;;;;12.50;44.60;;;;;;4984854;28;19932;-68
2022/04/17 11:57:08;;;;;;;;;;;13.40;42.70;;;;;;4986840;28;19972;-67
2022/04/17 11:59:48;;;;;;;;;;;13.90;41.60;;;;;;5002415;28;20082;-68
2022/04/17 12:02:16;;;;;;;;;;;14.20;41.20;;;;;;4985421;28;20007;-68
2022/04/17 12:04:44;;;;;;;;;;;13.50;42.30;;;;;;4989749;28;20862;-67
2022/04/17 12:07:12;;;;;;;;;;;13.10;43.10;;;;;;4981499;28;19933;-67
2022/04/17 12:09:39;;;;;;;;;;;13.00;42.40;;;;;;4988041;28;19933;-67
2022/04/17 12:12:13;;;;;;;;;;;12.90;43.80;;;;;;4986674;28;19932;-67
2022/04/17 12:14:42;;;;;;;;;;;13.20;43.00;;;;;;4986858;28;19933;-67
2022/04/17 12:17:12;;;;;;;;;;;13.00;44.20;;;;;;5004511;28;19940;-67
2022/04/17 12:19:48;;;;;;;;;;;13.20;41.70;;;;;;4987876;28;19933;-66
2022/04/17 12:22:17;;;;;;;;;;;13.40;42.10;;;;;;4987091;28;21146;-67
2022/04/17 12:24:45;;;;;;;;;;;13.80;41.70;;;;;;4988746;28;19940;-67
2022/04/17 12:27:14;;;;;;;;;;;13.90;42.50;;;;;;4989424;28;22322;-68
2022/04/17 12:29:41;;;;;;;;;;;13.70;40.90;;;;;;4987174;28;19936;-67
2022/04/17 12:32:15;;;;;;;;;;;14.00;41.10;;;;;;4978817;28;20013;-68
2022/04/17 12:34:45;;;;;;;;;;;14.30;41.80;;;;;;4985602;28;19933;-67
2022/04/17 12:37:22;;;;;;;;;;;14.40;38.90;;;;;;4993423;28;20660;-67
2022/04/17 12:39:49;;;;;;;;;;;13.80;38.80;;;;;;4989045;28;21130;-67
2022/04/17 12:42:17;;;;;;;;;;;13.60;38.80;;;;;;4990047;28;22401;-66
2022/04/17 12:44:47;;;;;;;;;;;13.80;41.90;;;;;;4991906;28;19940;-67
2022/04/17 12:47:15;;;;;;;;;;;13.50;41.00;;;;;;4998756;28;19932;-67
2022/04/17 12:49:42;;;;;;;;;;;13.70;39.70;;;;;;4988726;28;22521;-67
2022/04/17 12:52:19;;;;;;;;;;;13.80;39.80;;;;;;4989767;28;19941;-66
2022/04/17 12:54:46;;;;;;;;;;;14.00;39.70;;;;;;4991441;28;19999;-66
2022/04/17 12:57:18;;;;;;;;;;;13.90;41.20;;;;;;4991020;28;20018;-67
2022/04/17 12:59:49;;;;;;;;;;;13.50;41.30;;;;;;4990492;28;19933;-67
2022/04/17 13:02:18;;;;;;;;;;;13.70;40.40;;;;;;4991514;28;20015;-67
2022/04/17 13:04:46;;;;;;;;;;;14.40;40.40;;;;;;4992918;28;19932;-68
2022/04/17 13:07:15;;;;;;;;;;;14.60;38.50;;;;;;5004295;28;20403;-68
2022/04/17 13:09:53;;;;;;;;;;;15.10;40.70;;;;;;4989250;28;20407;-68
2022/04/17 13:12:33;;;;;;;;;;;14.80;38.30;;;;;;4991198;28;20716;-68
2022/04/17 13:15:07;;;;;;;;;;;14.30;40.00;;;;;;4991164;28;19940;-68
2022/04/17 13:17:45;;;;;;;;;;;13.90;38.80;;;;;;4992078;28;19987;-67
2022/04/17 13:20:13;;;;;;;;;;;13.50;38.70;;;;;;4992099;28;19940;-67
2022/04/17 13:22:40;;;;;;;;;;;13.80;39.90;;;;;;4997880;28;19933;-67
2022/04/17 13:25:07;;;;;;;;;;;14.40;39.10;;;;;;4992840;28;19933;-67
2022/04/17 13:27:34;;;;;;;;;;;14.70;37.70;;;;;;4988719;28;20455;-67
2022/04/17 13:30:01;;;;;;;;;;;14.90;38.70;;;;;;4990875;28;19933;-68
2022/04/17 13:32:28;;;;;;;;;;;15.10;37.60;;;;;;4991512;28;19940;-67
2022/04/17 13:34:55;;;;;;;;;;;15.00;39.00;;;;;;5005386;28;20969;-67
2022/04/17 13:40:08;;;;;;;;;;;14.00;39.70;;;;;;5006311;28;19933;-66
2022/04/17 13:42:38;;;;;;;;;;;13.50;38.60;;;;;;4991777;28;20629;-66
2022/04/17 13:45:09;;;;;;;;;;;13.40;41.10;;;;;;4989478;28;22410;-68
2022/04/17 13:47:39;;;;;;;;;;;14.00;39.10;;;;;;4989103;28;19932;-68
2022/04/17 13:50:09;;;;;;;;;;;14.20;39.40;;;;;;5005749;28;19933;-68
2022/04/17 13:52:40;;;;;;;;;;;14.70;38.90;;;;;;4990163;28;19978;-67
2022/04/17 13:55:09;;;;;;;;;;;14.90;38.30;;;;;;4990239;28;19956;-67
2022/04/17 13:57:37;;;;;;;;;;;14.80;38.70;;;;;;4989088;28;20691;-67
2022/04/17 14:00:06;;;;;;;;;;;14.70;38.30;;;;;;4987828;28;19937;-68
2022/04/17 14:02:40;;;;;;;;;;;14.40;39.50;;;;;;4991133;28;19940;-67
2022/04/17 14:05:09;;;;;;;;;;;14.70;39.50;;;;;;4956559;28;19933;-68
2022/04/17 14:07:37;;;;;;;;;;;14.60;38.30;;;;;;4987847;28;20032;-68
2022/04/17 14:10:05;;;;;;;;;;;14.20;38.40;;;;;;4979454;28;19941;-68
2022/04/17 14:12:32;;;;;;;;;;;14.10;38.90;;;;;;4997877;28;20020;-69
2022/04/17 14:14:58;;;;;;;;;;;14.30;39.80;;;;;;4987319;28;19933;-68
2022/04/17 14:17:25;;;;;;;;;;;13.80;40.00;;;;;;4997079;28;19940;-68
2022/04/17 14:19:53;;;;;;;;;;;13.50;38.20;;;;;;4989126;28;19944;-68
2022/04/17 14:22:24;;;;;;;;;;;13.40;37.50;;;;;;4991792;28;20039;-68
2022/04/17 14:24:51;;;;;;;;;;;13.70;36.80;;;;;;4990168;28;19934;-68
2022/04/17 14:27:19;;;;;;;;;;;13.80;37.60;;;;;;4986265;28;19982;-68
2022/04/17 14:29:47;;;;;;;;;;;14.00;38.40;;;;;;4988510;28;22247;-68
2022/04/17 14:32:14;;;;;;;;;;;14.00;37.90;;;;;;4989870;28;19933;-68
2022/04/17 14:34:41;;;;;;;;;;;14.30;38.30;;;;;;4990099;28;19933;-68
2022/04/17 14:37:08;;;;;;;;;;;14.30;37.80;;;;;;4988562;28;19933;-67
2022/04/17 14:39:35;;;;;;;;;;;14.40;37.40;;;;;;4987637;28;19933;-68
2022/04/17 14:42:02;;;;;;;;;;;14.30;37.80;;;;;;4978642;28;19975;-68
2022/04/17 14:44:29;;;;;;;;;;;14.10;37.90;;;;;;4989624;28;19933;-68
2022/04/17 14:47:02;;;;;;;;;;;14.10;37.60;;;;;;4988060;28;19933;-68
2022/04/17 14:49:29;;;;;;;;;;;14.10;36.80;;;;;;4987185;28;19999;-68